createdAt,value
2023-01-17T00:00:21.135Z,97969.31
2023-01-17T00:05:41.790Z,97995.66
2023-01-17T00:10:44.704Z,98010.41
2023-01-17T00:15:48.986Z,98012.56
2023-01-17T00:21:09.343Z,98016.16
2023-01-17T00:26:14.908Z,98034.13
2023-01-17T00:31:18.238Z,98044.34
2023-01-17T00:36:20.011Z,98064.63
2023-01-17T00:41:21.767Z,98057.97
2023-01-17T00:46:43.917Z,98065.19
2023-01-17T00:52:10.517Z,98064.69
2023-01-17T00:57:30.892Z,98078.66
2023-01-17T01:02:53.176Z,98090.56
2023-01-17T01:08:13.469Z,98099.16
2023-01-17T01:13:33.893Z,98107.66
2023-01-17T01:18:55.538Z,98103.41
2023-01-17T01:24:15.802Z,98116.75
2023-01-17T01:29:36.210Z,98120.31
2023-01-17T01:34:40.410Z,98117.47
2023-01-17T01:39:43.222Z,98115.63
2023-01-17T01:44:48.581Z,98154.69
2023-01-17T01:49:52.950Z,98162.66
2023-01-17T01:54:58.172Z,98165.81
2023-01-17T02:00:04.864Z,98164.50
2023-01-17T02:05:18.652Z,98165.44
2023-01-17T02:10:21.580Z,98156.22
2023-01-17T02:15:29.821Z,98181.06
2023-01-17T02:20:59.147Z,98181.16
2023-01-17T02:26:38.298Z,98186.84
2023-01-17T02:31:47.881Z,98238.84
2023-01-17T02:36:53.694Z,98247.56
2023-01-17T02:42:02.076Z,98232.22
2023-01-17T02:47:21.944Z,98218.47
2023-01-17T02:52:37.913Z,98201.19
2023-01-17T02:57:51.200Z,98202.16
2023-01-17T03:03:01.166Z,98225.59
2023-01-17T03:08:04.947Z,98237.84
2023-01-17T03:13:07.849Z,98242.28
2023-01-17T03:18:14.104Z,98241.69
2023-01-17T03:23:16.918Z,98252.91
2023-01-17T03:28:19.740Z,98251.22
2023-01-17T03:33:25.154Z,98258.34
2023-01-17T03:38:29.253Z,98257.56
2023-01-17T03:43:32.128Z,98263.56
2023-01-17T03:48:36.386Z,98259.81
2023-01-17T03:53:39.203Z,98271.84
2023-01-17T03:58:42.105Z,98289.91
2023-01-17T04:03:46.216Z,98297.34
2023-01-17T04:08:48.990Z,98316.78
2023-01-17T04:13:51.772Z,98327.91
2023-01-17T04:18:56.024Z,98337.97
2023-01-17T04:23:58.911Z,98341.66
2023-01-17T04:29:01.680Z,98348.63
2023-01-17T04:34:05.897Z,98359.88
2023-01-17T04:39:08.730Z,98340.44
2023-01-17T04:44:11.557Z,98371.66
2023-01-17T04:49:15.766Z,98373.59
2023-01-17T04:54:18.945Z,98361.56
2023-01-17T04:59:21.806Z,98364.53
2023-01-17T05:04:25.981Z,98361.09
2023-01-17T05:09:28.838Z,98360.13
2023-01-17T05:14:34.214Z,98371.00
2023-01-17T05:19:38.542Z,98367.00
2023-01-17T05:24:41.791Z,98380.41
2023-01-17T05:29:44.655Z,98384.22
2023-01-17T05:34:48.923Z,98402.25
2023-01-17T05:39:51.820Z,98406.34
2023-01-17T05:44:55.078Z,98414.81
2023-01-17T05:49:59.231Z,98426.16
2023-01-17T05:55:06.647Z,98427.94
2023-01-17T06:00:10.685Z,98432.88
2023-01-17T06:05:15.442Z,98435.91
2023-01-17T06:10:22.158Z,98431.69
2023-01-17T06:15:24.954Z,98437.38
2023-01-17T06:20:29.194Z,98447.78
2023-01-17T06:25:32.443Z,98453.63
2023-01-17T06:30:35.792Z,98456.19
2023-01-17T06:35:40.903Z,98455.41
2023-01-17T06:40:43.768Z,98472.56
2023-01-17T06:45:46.542Z,98487.13
2023-01-17T06:50:50.868Z,98483.50
2023-01-17T06:55:56.910Z,98483.38
2023-01-17T07:00:59.907Z,98493.28
2023-01-17T07:06:04.189Z,98493.47
2023-01-17T07:11:08.612Z,98503.88
2023-01-17T07:16:11.447Z,98506.97
2023-01-17T07:21:16.508Z,98507.09
2023-01-17T07:26:19.379Z,98509.84
2023-01-17T07:31:22.349Z,98515.53
2023-01-17T07:36:26.778Z,98513.44
2023-01-17T07:41:32.304Z,98517.09
2023-01-17T07:46:40.835Z,98516.22
2023-01-17T07:51:45.239Z,98512.63
2023-01-17T07:57:12.801Z,98514.47
2023-01-17T08:02:18.732Z,98514.47
2023-01-17T08:07:22.990Z,98510.19
2023-01-17T08:12:26.971Z,98521.53
2023-01-17T08:17:29.759Z,98530.78
2023-01-17T08:22:33.990Z,98532.47
2023-01-17T08:27:37.010Z,98531.19
2023-01-17T08:32:40.886Z,98543.84
2023-01-17T08:37:47.464Z,98558.47
2023-01-17T08:42:55.411Z,98550.72
2023-01-17T08:47:59.633Z,98561.56
2023-01-17T08:53:03.815Z,98568.94
2023-01-17T08:58:06.603Z,98572.13
2023-01-17T09:03:14.319Z,98579.63
2023-01-17T09:08:18.497Z,98575.25
2023-01-17T09:13:21.305Z,98592.63
2023-01-17T09:18:24.113Z,98590.56
2023-01-17T09:23:30.503Z,98591.88
2023-01-17T09:28:39.600Z,98599.63
2023-01-17T09:33:43.028Z,98604.84
2023-01-17T09:38:47.526Z,98616.03
2023-01-17T09:43:56.096Z,98609.25
2023-01-17T09:49:04.494Z,98605.78
2023-01-17T09:54:15.472Z,98631.97
2023-01-17T09:59:32.204Z,98634.22
2023-01-17T10:04:51.287Z,98634.44
2023-01-17T10:10:21.910Z,98646.16
2023-01-17T10:15:49.200Z,98655.03
2023-01-17T10:20:55.776Z,98654.56
2023-01-17T10:26:01.288Z,98656.19
2023-01-17T10:31:06.865Z,98663.09
2023-01-17T10:36:15.411Z,98663.72
2023-01-17T10:41:25.159Z,98662.47
2023-01-17T10:46:33.535Z,98656.06
2023-01-17T10:52:05.600Z,98660.91
2023-01-17T10:57:14.984Z,98659.00
2023-01-17T11:02:23.103Z,98677.75
2023-01-17T11:07:29.084Z,98674.47
2023-01-17T11:12:34.713Z,98671.00
2023-01-17T11:17:38.639Z,98677.22
2023-01-17T11:22:43.526Z,98671.94
2023-01-17T11:27:58.767Z,98670.75
2023-01-17T11:33:03.934Z,98680.03
2023-01-17T11:38:11.783Z,98673.19
2023-01-17T11:43:26.386Z,98659.72
2023-01-17T11:48:35.172Z,98665.53
2023-01-17T11:53:42.325Z,98669.16
2023-01-17T11:58:47.290Z,98658.13
2023-01-17T12:04:09.753Z,98653.56
2023-01-17T12:09:22.880Z,98660.38
2023-01-17T12:14:34.849Z,98659.81
2023-01-17T12:19:48.999Z,98656.75
2023-01-17T12:25:14.909Z,98647.06
2023-01-17T12:30:39.334Z,98648.94
2023-01-17T12:35:46.577Z,98647.25
2023-01-17T12:40:52.400Z,98646.09
2023-01-17T12:45:57.227Z,98662.34
2023-01-17T12:51:04.249Z,98639.13
2023-01-17T12:56:10.558Z,98653.63
2023-01-17T13:01:21.201Z,98655.75
2023-01-17T13:06:29.726Z,98647.19
2023-01-17T13:11:44.010Z,98658.50
2023-01-17T13:16:53.923Z,98666.44
2023-01-17T13:21:57.575Z,98670.63
2023-01-17T13:27:48.094Z,98663.25
2023-01-17T13:38:59.475Z,98663.16
2023-01-17T13:44:20.390Z,98665.34
2023-01-17T13:49:34.160Z,98672.69
2023-01-17T13:54:44.859Z,98682.63
2023-01-17T13:59:47.778Z,98688.44
2023-01-17T14:05:13.378Z,98686.72
2023-01-17T14:10:30.200Z,98697.28
2023-01-17T14:15:35.237Z,98705.09
2023-01-17T14:20:48.906Z,98702.66
2023-01-17T14:25:52.167Z,98706.59
2023-01-17T14:30:56.582Z,98705.41
2023-01-17T14:36:07.065Z,98698.44
2023-01-17T14:41:14.215Z,98709.44
2023-01-17T14:46:22.605Z,98710.47
2023-01-17T14:51:26.905Z,98722.03
2023-01-17T14:56:31.373Z,98734.09
2023-01-17T15:01:35.661Z,98738.63
2023-01-17T15:06:42.013Z,98735.31
2023-01-17T15:11:45.865Z,98732.78
2023-01-17T15:16:51.974Z,98747.78
2023-01-17T15:21:56.317Z,98743.03
2023-01-17T15:26:59.192Z,98751.72
2023-01-17T15:32:03.364Z,98753.13
2023-01-17T15:37:09.544Z,98759.31
2023-01-17T15:42:21.440Z,98750.31
2023-01-17T15:47:29.683Z,98762.66
2023-01-17T15:52:33.916Z,98771.78
2023-01-17T15:57:37.662Z,98766.47
2023-01-17T16:02:43.637Z,98769.31
2023-01-17T16:07:48.273Z,98775.31
2023-01-17T16:12:54.049Z,98777.53
2023-01-17T16:18:04.214Z,98781.56
2023-01-17T16:23:10.589Z,98777.97
2023-01-17T16:28:13.421Z,98775.59
2023-01-17T16:33:16.785Z,98797.19
2023-01-17T16:38:21.046Z,98796.38
2023-01-17T16:43:23.855Z,98799.78
2023-01-17T16:48:26.768Z,98798.38
2023-01-17T16:53:30.929Z,98808.91
2023-01-17T16:58:33.711Z,98805.75
2023-01-17T17:03:36.514Z,98815.25
2023-01-17T17:08:40.887Z,98822.22
2023-01-17T17:13:45.377Z,98813.66
2023-01-17T17:18:54.844Z,98821.63
2023-01-17T17:24:00.497Z,98826.22
2023-01-17T17:29:03.966Z,98823.75
2023-01-17T17:34:07.643Z,98829.13
2023-01-17T17:39:14.792Z,98839.72
2023-01-17T17:44:20.424Z,98837.16
2023-01-17T17:49:23.351Z,98843.22
2023-01-17T17:54:27.597Z,98845.69
2023-01-17T17:59:31.164Z,98854.78
2023-01-17T18:04:34.076Z,98842.84
2023-01-17T18:09:39.306Z,98860.81
2023-01-17T18:14:42.162Z,98855.44
2023-01-17T18:19:46.149Z,98866.16
2023-01-17T18:24:50.355Z,98870.22
2023-01-17T18:29:53.205Z,98870.41
2023-01-17T18:34:56.076Z,98876.69
2023-01-17T18:40:00.339Z,98882.75
2023-01-17T18:45:03.278Z,98889.31
2023-01-17T18:50:06.716Z,98888.34
2023-01-17T18:55:11.123Z,98891.09
2023-01-17T19:00:15.485Z,98897.56
2023-01-17T19:05:21.582Z,98904.59
2023-01-17T19:10:25.945Z,98902.94
2023-01-17T19:15:29.184Z,98908.00
2023-01-17T19:20:32.451Z,98906.19
2023-01-17T19:25:37.270Z,98913.00
2023-01-17T19:30:40.829Z,98890.59
2023-01-17T19:35:43.655Z,98910.31
2023-01-17T19:40:47.846Z,98920.81
2023-01-17T19:45:58.477Z,98932.13
2023-01-17T19:51:05.714Z,98939.13
2023-01-17T19:56:11.720Z,98934.50
2023-01-17T20:01:16.089Z,98939.22
2023-01-17T20:06:20.920Z,98938.97
2023-01-17T20:11:26.135Z,98937.44
2023-01-17T20:16:31.710Z,98937.66
2023-01-17T20:21:34.637Z,98941.00
2023-01-17T20:26:38.859Z,98945.91
2023-01-17T20:31:42.890Z,98941.72
2023-01-17T20:36:46.137Z,98931.47
2023-01-17T20:41:51.529Z,98948.75
2023-01-17T20:46:54.386Z,98948.88
2023-01-17T20:51:57.892Z,98952.69
2023-01-17T20:57:02.080Z,98957.00
2023-01-17T21:02:05.097Z,98956.09
2023-01-17T21:07:14.013Z,98955.94
2023-01-17T21:12:18.461Z,98958.53
2023-01-17T21:17:21.338Z,98964.66
2023-01-17T21:22:24.213Z,98961.28
2023-01-17T21:27:28.493Z,98973.16
2023-01-17T21:32:31.429Z,98961.78
2023-01-17T21:37:34.333Z,98962.41
2023-01-17T21:42:38.530Z,98962.00
2023-01-17T21:47:44.565Z,98966.47
2023-01-17T21:52:47.415Z,98968.13
2023-01-17T21:58:09.504Z,98972.50
2023-01-17T22:03:12.479Z,98970.75
2023-01-17T22:08:15.553Z,98978.25
2023-01-17T22:13:20.162Z,98979.25
2023-01-17T22:18:23.431Z,98989.13
2023-01-17T22:23:28.965Z,98992.53
2023-01-17T22:28:34.023Z,98986.72
2023-01-17T22:33:36.937Z,98988.38
2023-01-17T22:38:39.725Z,98983.19
2023-01-17T22:43:46.585Z,98982.47
2023-01-17T22:48:49.836Z,98985.16
2023-01-17T22:53:54.163Z,98984.19
2023-01-17T22:58:58.763Z,98975.63
2023-01-17T23:04:02.895Z,98980.72
2023-01-17T23:09:08.314Z,98990.16
2023-01-17T23:14:15.618Z,98990.13
2023-01-17T23:19:24.733Z,98990.06
2023-01-17T23:24:27.810Z,98987.41
2023-01-17T23:29:34.457Z,98982.56
2023-01-17T23:34:37.289Z,98984.72
2023-01-17T23:39:40.078Z,98992.75
2023-01-17T23:44:44.317Z,98972.56
2023-01-17T23:49:48.224Z,98995.81
2023-01-17T23:54:51.495Z,98991.97
2023-01-17T23:59:55.747Z,98990.28
